sensor_id;sensor_type;location;lat;lon;timestamp;P1;durP1;ratioP1;P2;durP2;ratioP2
67053;SDS011;53960;51.826;5.850;2022-12-07T00:01:30;19.27;;;10.83;;
67053;SDS011;53960;51.826;5.850;2022-12-07T00:03:58;17.48;;;10.80;;
67053;SDS011;53960;51.826;5.850;2022-12-07T00:06:30;18.48;;;10.40;;
67053;SDS011;53960;51.826;5.850;2022-12-07T00:09:06;20.20;;;11.18;;
67053;SDS011;53960;51.826;5.850;2022-12-07T00:11:34;19.60;;;9.95;;
67053;SDS011;53960;51.826;5.850;2022-12-07T00:14:01;20.63;;;9.83;;
67053;SDS011;53960;51.826;5.850;2022-12-07T00:16:29;19.50;;;9.77;;
67053;SDS011;53960;51.826;5.850;2022-12-07T00:18:56;17.52;;;9.77;;
67053;SDS011;53960;51.826;5.850;2022-12-07T00:21:29;17.02;;;9.77;;
67053;SDS011;53960;51.826;5.850;2022-12-07T00:23:56;17.27;;;9.75;;
67053;SDS011;53960;51.826;5.850;2022-12-07T00:26:32;18.67;;;9.57;;
67053;SDS011;53960;51.826;5.850;2022-12-07T00:29:00;18.63;;;9.50;;
67053;SDS011;53960;51.826;5.850;2022-12-07T00:31:30;18.77;;;9.80;;
67053;SDS011;53960;51.826;5.850;2022-12-07T00:33:58;19.00;;;9.38;;
67053;SDS011;53960;51.826;5.850;2022-12-07T00:36:24;19.53;;;9.90;;
67053;SDS011;53960;51.826;5.850;2022-12-07T00:38:50;17.38;;;9.50;;
67053;SDS011;53960;51.826;5.850;2022-12-07T00:41:17;14.70;;;8.47;;
67053;SDS011;53960;51.826;5.850;2022-12-07T00:43:44;18.98;;;9.55;;
67053;SDS011;53960;51.826;5.850;2022-12-07T00:46:11;16.35;;;7.70;;
67053;SDS011;53960;51.826;5.850;2022-12-07T00:48:36;16.70;;;9.23;;
67053;SDS011;53960;51.826;5.850;2022-12-07T00:51:02;15.23;;;8.48;;
67053;SDS011;53960;51.826;5.850;2022-12-07T00:53:29;16.63;;;8.40;;
67053;SDS011;53960;51.826;5.850;2022-12-07T00:55:55;17.48;;;8.70;;
67053;SDS011;53960;51.826;5.850;2022-12-07T00:58:21;15.73;;;8.10;;
67053;SDS011;53960;51.826;5.850;2022-12-07T01:00:47;13.70;;;7.80;;
67053;SDS011;53960;51.826;5.850;2022-12-07T01:03:13;16.30;;;8.43;;
67053;SDS011;53960;51.826;5.850;2022-12-07T01:05:39;15.23;;;8.40;;
67053;SDS011;53960;51.826;5.850;2022-12-07T01:08:05;14.63;;;8.23;;
67053;SDS011;53960;51.826;5.850;2022-12-07T01:10:31;15.67;;;8.30;;
67053;SDS011;53960;51.826;5.850;2022-12-07T01:12:57;14.40;;;8.07;;
67053;SDS011;53960;51.826;5.850;2022-12-07T01:15:24;17.13;;;8.55;;
67053;SDS011;53960;51.826;5.850;2022-12-07T01:17:50;16.77;;;8.80;;
67053;SDS011;53960;51.826;5.850;2022-12-07T01:20:15;15.10;;;8.20;;
67053;SDS011;53960;51.826;5.850;2022-12-07T01:22:41;16.53;;;8.43;;
67053;SDS011;53960;51.826;5.850;2022-12-07T01:25:08;15.98;;;8.30;;
67053;SDS011;53960;51.826;5.850;2022-12-07T01:27:35;15.18;;;8.20;;
67053;SDS011;53960;51.826;5.850;2022-12-07T01:30:00;15.65;;;8.57;;
67053;SDS011;53960;51.826;5.850;2022-12-07T01:32:26;16.03;;;8.30;;
67053;SDS011;53960;51.826;5.850;2022-12-07T01:34:52;17.35;;;8.55;;
67053;SDS011;53960;51.826;5.850;2022-12-07T01:37:17;18.13;;;8.80;;
67053;SDS011;53960;51.826;5.850;2022-12-07T01:39:43;17.13;;;9.07;;
67053;SDS011;53960;51.826;5.850;2022-12-07T01:42:11;16.97;;;8.87;;
67053;SDS011;53960;51.826;5.850;2022-12-07T01:47:40;16.75;;;8.27;;
67053;SDS011;53960;51.826;5.850;2022-12-07T01:50:06;14.90;;;8.43;;
67053;SDS011;53960;51.826;5.850;2022-12-07T01:52:32;17.60;;;8.27;;
67053;SDS011;53960;51.826;5.850;2022-12-07T01:55:06;17.13;;;8.60;;
67053;SDS011;53960;51.826;5.850;2022-12-07T01:57:34;16.63;;;9.20;;
67053;SDS011;53960;51.826;5.850;2022-12-07T02:00:04;14.50;;;7.68;;
67053;SDS011;53960;51.826;5.850;2022-12-07T02:02:31;16.88;;;8.95;;
67053;SDS011;53960;51.826;5.850;2022-12-07T02:05:00;16.40;;;8.50;;
67053;SDS011;53960;51.826;5.850;2022-12-07T02:07:27;14.85;;;8.35;;
67053;SDS011;53960;51.826;5.850;2022-12-07T02:09:53;14.95;;;8.60;;
67053;SDS011;53960;51.826;5.850;2022-12-07T02:12:19;15.77;;;8.70;;
67053;SDS011;53960;51.826;5.850;2022-12-07T02:14:46;14.00;;;7.60;;
67053;SDS011;53960;51.826;5.850;2022-12-07T02:17:14;14.80;;;8.30;;
67053;SDS011;53960;51.826;5.850;2022-12-07T02:20:10;15.35;;;8.38;;
67053;SDS011;53960;51.826;5.850;2022-12-07T02:22:50;15.13;;;7.70;;
67053;SDS011;53960;51.826;5.850;2022-12-07T02:30:57;21.00;;;8.53;;
67053;SDS011;53960;51.826;5.850;2022-12-07T02:33:37;16.50;;;8.15;;
67053;SDS011;53960;51.826;5.850;2022-12-07T02:36:30;16.13;;;8.65;;
67053;SDS011;53960;51.826;5.850;2022-12-07T02:39:07;15.88;;;8.00;;
67053;SDS011;53960;51.826;5.850;2022-12-07T02:41:40;16.77;;;8.95;;
67053;SDS011;53960;51.826;5.850;2022-12-07T02:44:10;15.63;;;8.90;;
67053;SDS011;53960;51.826;5.850;2022-12-07T02:46:43;19.88;;;9.32;;
67053;SDS011;53960;51.826;5.850;2022-12-07T02:52:01;14.93;;;8.13;;
67053;SDS011;53960;51.826;5.850;2022-12-07T02:54:26;19.20;;;8.63;;
67053;SDS011;53960;51.826;5.850;2022-12-07T02:56:56;15.90;;;7.73;;
67053;SDS011;53960;51.826;5.850;2022-12-07T03:02:13;15.65;;;7.32;;
67053;SDS011;53960;51.826;5.850;2022-12-07T03:16:25;13.95;;;7.20;;
67053;SDS011;53960;51.826;5.850;2022-12-07T03:18:58;17.00;;;7.85;;
67053;SDS011;53960;51.826;5.850;2022-12-07T03:21:28;14.43;;;7.50;;
67053;SDS011;53960;51.826;5.850;2022-12-07T03:24:17;12.70;;;7.22;;
67053;SDS011;53960;51.826;5.850;2022-12-07T03:26:46;14.98;;;7.68;;
67053;SDS011;53960;51.826;5.850;2022-12-07T03:29:25;14.25;;;7.88;;
67053;SDS011;53960;51.826;5.850;2022-12-07T03:31:57;12.43;;;7.63;;
67053;SDS011;53960;51.826;5.850;2022-12-07T03:34:29;14.27;;;7.10;;
67053;SDS011;53960;51.826;5.850;2022-12-07T03:37:04;15.75;;;7.93;;
67053;SDS011;53960;51.826;5.850;2022-12-07T03:39:39;16.48;;;7.20;;
67053;SDS011;53960;51.826;5.850;2022-12-07T03:42:09;15.90;;;7.13;;
67053;SDS011;53960;51.826;5.850;2022-12-07T03:44:36;15.32;;;6.85;;
67053;SDS011;53960;51.826;5.850;2022-12-07T03:47:04;12.77;;;6.77;;
67053;SDS011;53960;51.826;5.850;2022-12-07T03:49:39;13.98;;;7.28;;
67053;SDS011;53960;51.826;5.850;2022-12-07T03:57:39;13.32;;;6.60;;
67053;SDS011;53960;51.826;5.850;2022-12-07T04:00:07;16.63;;;6.70;;
67053;SDS011;53960;51.826;5.850;2022-12-07T04:02:33;12.85;;;6.10;;
67053;SDS011;53960;51.826;5.850;2022-12-07T04:04:59;12.63;;;6.22;;
67053;SDS011;53960;51.826;5.850;2022-12-07T04:07:24;15.17;;;7.07;;
67053;SDS011;53960;51.826;5.850;2022-12-07T04:09:50;12.98;;;5.90;;
67053;SDS011;53960;51.826;5.850;2022-12-07T04:12:16;14.20;;;6.20;;
67053;SDS011;53960;51.826;5.850;2022-12-07T04:14:41;13.13;;;5.70;;
67053;SDS011;53960;51.826;5.850;2022-12-07T04:17:06;12.97;;;5.97;;
67053;SDS011;53960;51.826;5.850;2022-12-07T04:19:32;11.13;;;5.80;;
67053;SDS011;53960;51.826;5.850;2022-12-07T04:21:59;19.13;;;5.27;;
67053;SDS011;53960;51.826;5.850;2022-12-07T04:24:26;12.30;;;5.53;;
67053;SDS011;53960;51.826;5.850;2022-12-07T04:26:51;13.20;;;5.22;;
67053;SDS011;53960;51.826;5.850;2022-12-07T04:29:17;12.73;;;5.77;;
67053;SDS011;53960;51.826;5.850;2022-12-07T04:31:43;14.45;;;6.03;;
67053;SDS011;53960;51.826;5.850;2022-12-07T04:34:09;11.30;;;5.60;;
67053;SDS011;53960;51.826;5.850;2022-12-07T04:36:36;12.48;;;5.28;;
67053;SDS011;53960;51.826;5.850;2022-12-07T04:39:02;13.87;;;5.20;;
67053;SDS011;53960;51.826;5.850;2022-12-07T04:41:28;12.07;;;5.30;;
67053;SDS011;53960;51.826;5.850;2022-12-07T04:43:54;12.43;;;5.20;;
67053;SDS011;53960;51.826;5.850;2022-12-07T04:46:21;13.00;;;4.60;;
67053;SDS011;53960;51.826;5.850;2022-12-07T04:48:51;11.75;;;4.78;;
67053;SDS011;53960;51.826;5.850;2022-12-07T04:51:18;12.23;;;4.95;;
67053;SDS011;53960;51.826;5.850;2022-12-07T04:53:48;10.52;;;4.65;;
67053;SDS011;53960;51.826;5.850;2022-12-07T04:56:14;11.53;;;4.70;;
67053;SDS011;53960;51.826;5.850;2022-12-07T04:58:41;11.75;;;4.88;;
67053;SDS011;53960;51.826;5.850;2022-12-07T05:01:07;9.73;;;4.70;;
67053;SDS011;53960;51.826;5.850;2022-12-07T05:03:32;13.57;;;5.20;;
67053;SDS011;53960;51.826;5.850;2022-12-07T05:05:58;11.73;;;4.72;;
67053;SDS011;53960;51.826;5.850;2022-12-07T05:08:23;11.77;;;4.43;;
67053;SDS011;53960;51.826;5.850;2022-12-07T05:10:49;12.97;;;4.80;;
67053;SDS011;53960;51.826;5.850;2022-12-07T05:13:14;11.80;;;4.38;;
67053;SDS011;53960;51.826;5.850;2022-12-07T05:15:40;12.53;;;4.57;;
67053;SDS011;53960;51.826;5.850;2022-12-07T05:18:05;12.50;;;4.30;;
67053;SDS011;53960;51.826;5.850;2022-12-07T05:20:31;13.70;;;4.13;;
67053;SDS011;53960;51.826;5.850;2022-12-07T05:22:56;13.77;;;4.18;;
67053;SDS011;53960;51.826;5.850;2022-12-07T05:25:23;11.30;;;4.20;;
67053;SDS011;53960;51.826;5.850;2022-12-07T05:27:48;10.80;;;4.63;;
67053;SDS011;53960;51.826;5.850;2022-12-07T05:30:14;11.63;;;4.67;;
67053;SDS011;53960;51.826;5.850;2022-12-07T05:32:39;10.47;;;4.13;;
67053;SDS011;53960;51.826;5.850;2022-12-07T05:35:05;13.33;;;5.10;;
67053;SDS011;53960;51.826;5.850;2022-12-07T05:37:30;12.55;;;4.97;;
67053;SDS011;53960;51.826;5.850;2022-12-07T05:39:56;10.97;;;5.00;;
67053;SDS011;53960;51.826;5.850;2022-12-07T05:42:21;14.33;;;5.70;;
67053;SDS011;53960;51.826;5.850;2022-12-07T05:44:47;12.55;;;5.60;;
67053;SDS011;53960;51.826;5.850;2022-12-07T05:47:13;11.53;;;5.23;;
67053;SDS011;53960;51.826;5.850;2022-12-07T05:49:39;13.20;;;5.07;;
67053;SDS011;53960;51.826;5.850;2022-12-07T05:52:05;11.37;;;5.30;;
67053;SDS011;53960;51.826;5.850;2022-12-07T05:54:31;11.40;;;4.93;;
67053;SDS011;53960;51.826;5.850;2022-12-07T05:56:57;10.47;;;4.43;;
67053;SDS011;53960;51.826;5.850;2022-12-07T05:59:22;12.35;;;4.60;;
67053;SDS011;53960;51.826;5.850;2022-12-07T06:04:17;11.50;;;4.20;;
67053;SDS011;53960;51.826;5.850;2022-12-07T06:06:44;11.75;;;4.13;;
67053;SDS011;53960;51.826;5.850;2022-12-07T06:09:09;12.13;;;3.50;;
67053;SDS011;53960;51.826;5.850;2022-12-07T06:11:35;8.98;;;3.60;;
67053;SDS011;53960;51.826;5.850;2022-12-07T06:14:19;8.25;;;3.20;;
67053;SDS011;53960;51.826;5.850;2022-12-07T06:16:44;10.03;;;3.30;;
67053;SDS011;53960;51.826;5.850;2022-12-07T06:19:10;10.10;;;3.17;;
67053;SDS011;53960;51.826;5.850;2022-12-07T06:21:35;7.88;;;3.50;;
67053;SDS011;53960;51.826;5.850;2022-12-07T06:24:01;11.90;;;3.73;;
67053;SDS011;53960;51.826;5.850;2022-12-07T06:26:27;9.63;;;3.43;;
67053;SDS011;53960;51.826;5.850;2022-12-07T06:28:52;8.55;;;3.03;;
67053;SDS011;53960;51.826;5.850;2022-12-07T06:31:17;8.00;;;2.93;;
67053;SDS011;53960;51.826;5.850;2022-12-07T06:33:43;9.17;;;3.47;;
67053;SDS011;53960;51.826;5.850;2022-12-07T06:36:08;11.27;;;3.03;;
67053;SDS011;53960;51.826;5.850;2022-12-07T06:38:34;11.23;;;3.33;;
67053;SDS011;53960;51.826;5.850;2022-12-07T06:41:00;9.27;;;3.10;;
67053;SDS011;53960;51.826;5.850;2022-12-07T06:43:25;13.00;;;3.70;;
67053;SDS011;53960;51.826;5.850;2022-12-07T06:45:50;10.15;;;3.50;;
67053;SDS011;53960;51.826;5.850;2022-12-07T06:48:16;10.17;;;3.67;;
67053;SDS011;53960;51.826;5.850;2022-12-07T06:50:43;8.27;;;3.00;;
67053;SDS011;53960;51.826;5.850;2022-12-07T06:53:10;13.02;;;3.10;;
67053;SDS011;53960;51.826;5.850;2022-12-07T06:55:35;10.07;;;3.00;;
67053;SDS011;53960;51.826;5.850;2022-12-07T06:58:00;10.37;;;3.10;;
67053;SDS011;53960;51.826;5.850;2022-12-07T07:00:27;12.30;;;2.78;;
67053;SDS011;53960;51.826;5.850;2022-12-07T07:02:52;9.57;;;2.97;;
67053;SDS011;53960;51.826;5.850;2022-12-07T07:05:18;9.60;;;2.60;;
67053;SDS011;53960;51.826;5.850;2022-12-07T07:07:43;10.90;;;2.67;;
67053;SDS011;53960;51.826;5.850;2022-12-07T07:10:09;11.33;;;2.80;;
67053;SDS011;53960;51.826;5.850;2022-12-07T07:12:34;12.90;;;2.80;;
67053;SDS011;53960;51.826;5.850;2022-12-07T07:14:59;18.13;;;2.77;;
67053;SDS011;53960;51.826;5.850;2022-12-07T07:17:25;38.30;;;5.03;;
67053;SDS011;53960;51.826;5.850;2022-12-07T07:19:50;25.93;;;4.03;;
67053;SDS011;53960;51.826;5.850;2022-12-07T07:22:15;9.37;;;2.73;;
67053;SDS011;53960;51.826;5.850;2022-12-07T07:24:41;12.03;;;2.77;;
67053;SDS011;53960;51.826;5.850;2022-12-07T07:27:06;11.00;;;2.70;;
67053;SDS011;53960;51.826;5.850;2022-12-07T07:29:31;10.37;;;2.47;;
67053;SDS011;53960;51.826;5.850;2022-12-07T07:31:56;11.17;;;2.50;;
67053;SDS011;53960;51.826;5.850;2022-12-07T07:34:22;10.20;;;2.60;;
67053;SDS011;53960;51.826;5.850;2022-12-07T07:36:47;11.10;;;3.00;;
67053;SDS011;53960;51.826;5.850;2022-12-07T07:39:12;9.60;;;2.40;;
67053;SDS011;53960;51.826;5.850;2022-12-07T07:41:38;10.23;;;2.70;;
67053;SDS011;53960;51.826;5.850;2022-12-07T07:44:03;12.27;;;2.80;;
67053;SDS011;53960;51.826;5.850;2022-12-07T07:46:29;8.90;;;2.87;;
67053;SDS011;53960;51.826;5.850;2022-12-07T07:48:54;10.00;;;2.70;;
67053;SDS011;53960;51.826;5.850;2022-12-07T07:51:19;9.07;;;2.30;;
67053;SDS011;53960;51.826;5.850;2022-12-07T07:53:45;11.32;;;2.80;;
67053;SDS011;53960;51.826;5.850;2022-12-07T07:56:11;10.37;;;3.37;;
67053;SDS011;53960;51.826;5.850;2022-12-07T07:58:36;12.77;;;3.37;;
67053;SDS011;53960;51.826;5.850;2022-12-07T08:01:04;9.90;;;3.58;;
67053;SDS011;53960;51.826;5.850;2022-12-07T08:03:30;10.40;;;4.25;;
67053;SDS011;53960;51.826;5.850;2022-12-07T08:05:56;15.00;;;4.93;;
67053;SDS011;53960;51.826;5.850;2022-12-07T08:08:21;11.87;;;4.40;;
67053;SDS011;53960;51.826;5.850;2022-12-07T08:10:47;11.30;;;4.73;;
67053;SDS011;53960;51.826;5.850;2022-12-07T08:13:13;13.13;;;7.40;;
67053;SDS011;53960;51.826;5.850;2022-12-07T08:15:41;13.50;;;6.65;;
67053;SDS011;53960;51.826;5.850;2022-12-07T08:18:08;15.10;;;6.75;;
67053;SDS011;53960;51.826;5.850;2022-12-07T08:20:34;15.53;;;5.40;;
67053;SDS011;53960;51.826;5.850;2022-12-07T08:23:01;13.00;;;5.15;;
67053;SDS011;53960;51.826;5.850;2022-12-07T08:25:27;10.77;;;4.33;;
67053;SDS011;53960;51.826;5.850;2022-12-07T08:27:52;10.85;;;4.10;;
67053;SDS011;53960;51.826;5.850;2022-12-07T08:30:18;11.77;;;3.77;;
67053;SDS011;53960;51.826;5.850;2022-12-07T08:32:44;9.27;;;3.00;;
67053;SDS011;53960;51.826;5.850;2022-12-07T08:35:10;9.13;;;2.65;;
67053;SDS011;53960;51.826;5.850;2022-12-07T08:37:35;11.53;;;2.47;;
67053;SDS011;53960;51.826;5.850;2022-12-07T08:40:02;9.00;;;2.50;;
67053;SDS011;53960;51.826;5.850;2022-12-07T08:42:28;13.30;;;2.58;;
67053;SDS011;53960;51.826;5.850;2022-12-07T08:45:03;11.15;;;2.80;;
67053;SDS011;53960;51.826;5.850;2022-12-07T08:47:30;8.30;;;2.45;;
67053;SDS011;53960;51.826;5.850;2022-12-07T08:49:56;12.67;;;3.13;;
67053;SDS011;53960;51.826;5.850;2022-12-07T08:52:21;9.50;;;2.75;;
67053;SDS011;53960;51.826;5.850;2022-12-07T08:54:47;10.47;;;2.70;;
67053;SDS011;53960;51.826;5.850;2022-12-07T08:57:13;10.30;;;2.50;;
67053;SDS011;53960;51.826;5.850;2022-12-07T08:59:38;12.83;;;2.77;;
67053;SDS011;53960;51.826;5.850;2022-12-07T09:02:04;9.03;;;2.60;;
67053;SDS011;53960;51.826;5.850;2022-12-07T09:04:30;11.05;;;2.80;;
67053;SDS011;53960;51.826;5.850;2022-12-07T09:06:56;12.73;;;2.83;;
67053;SDS011;53960;51.826;5.850;2022-12-07T09:09:21;48.45;;;5.97;;
67053;SDS011;53960;51.826;5.850;2022-12-07T09:11:47;11.50;;;2.90;;
67053;SDS011;53960;51.826;5.850;2022-12-07T09:14:12;14.27;;;3.13;;
67053;SDS011;53960;51.826;5.850;2022-12-07T09:16:38;8.85;;;2.70;;
67053;SDS011;53960;51.826;5.850;2022-12-07T09:19:04;13.30;;;2.63;;
67053;SDS011;53960;51.826;5.850;2022-12-07T09:21:30;11.82;;;3.17;;
67053;SDS011;53960;51.826;5.850;2022-12-07T09:23:55;9.67;;;2.83;;
67053;SDS011;53960;51.826;5.850;2022-12-07T09:26:21;8.23;;;2.30;;
67053;SDS011;53960;51.826;5.850;2022-12-07T09:28:47;10.32;;;2.20;;
67053;SDS011;53960;51.826;5.850;2022-12-07T09:31:12;12.13;;;2.43;;
67053;SDS011;53960;51.826;5.850;2022-12-07T09:33:37;9.00;;;2.20;;
67053;SDS011;53960;51.826;5.850;2022-12-07T09:36:03;9.30;;;2.50;;
67053;SDS011;53960;51.826;5.850;2022-12-07T09:38:28;8.82;;;2.50;;
67053;SDS011;53960;51.826;5.850;2022-12-07T09:40:55;9.85;;;2.20;;
67053;SDS011;53960;51.826;5.850;2022-12-07T09:43:21;10.50;;;2.20;;
67053;SDS011;53960;51.826;5.850;2022-12-07T09:45:49;10.35;;;2.40;;
67053;SDS011;53960;51.826;5.850;2022-12-07T09:48:22;11.80;;;3.53;;
67053;SDS011;53960;51.826;5.850;2022-12-07T09:50:54;9.50;;;2.23;;
67053;SDS011;53960;51.826;5.850;2022-12-07T09:53:33;11.13;;;2.30;;
67053;SDS011;53960;51.826;5.850;2022-12-07T09:56:00;8.05;;;2.53;;
67053;SDS011;53960;51.826;5.850;2022-12-07T09:58:27;12.93;;;2.15;;
67053;SDS011;53960;51.826;5.850;2022-12-07T10:00:58;25.15;;;3.15;;
67053;SDS011;53960;51.826;5.850;2022-12-07T10:03:28;10.03;;;2.27;;
67053;SDS011;53960;51.826;5.850;2022-12-07T10:05:54;9.52;;;2.13;;
67053;SDS011;53960;51.826;5.850;2022-12-07T10:08:20;9.60;;;2.13;;
67053;SDS011;53960;51.826;5.850;2022-12-07T10:10:48;9.93;;;2.17;;
67053;SDS011;53960;51.826;5.850;2022-12-07T10:13:20;9.87;;;2.17;;
67053;SDS011;53960;51.826;5.850;2022-12-07T10:15:51;10.45;;;2.25;;
67053;SDS011;53960;51.826;5.850;2022-12-07T10:18:26;9.25;;;2.20;;
67053;SDS011;53960;51.826;5.850;2022-12-07T10:26:26;10.20;;;2.10;;
67053;SDS011;53960;51.826;5.850;2022-12-07T10:28:54;7.50;;;2.40;;
67053;SDS011;53960;51.826;5.850;2022-12-07T10:31:23;11.48;;;2.40;;
67053;SDS011;53960;51.826;5.850;2022-12-07T10:33:56;9.37;;;2.63;;
67053;SDS011;53960;51.826;5.850;2022-12-07T10:36:24;11.63;;;2.30;;
67053;SDS011;53960;51.826;5.850;2022-12-07T10:39:00;8.40;;;2.15;;
67053;SDS011;53960;51.826;5.850;2022-12-07T10:41:28;8.52;;;2.22;;
67053;SDS011;53960;51.826;5.850;2022-12-07T10:43:55;8.20;;;2.10;;
67053;SDS011;53960;51.826;5.850;2022-12-07T10:46:41;10.02;;;1.88;;
67053;SDS011;53960;51.826;5.850;2022-12-07T10:55:03;8.55;;;2.00;;
67053;SDS011;53960;51.826;5.850;2022-12-07T10:57:45;10.13;;;1.90;;
67053;SDS011;53960;51.826;5.850;2022-12-07T11:00:21;9.20;;;1.73;;
67053;SDS011;53960;51.826;5.850;2022-12-07T11:03:07;9.38;;;2.35;;
67053;SDS011;53960;51.826;5.850;2022-12-07T11:06:06;7.83;;;1.50;;
67053;SDS011;53960;51.826;5.850;2022-12-07T11:11:36;12.18;;;1.60;;
67053;SDS011;53960;51.826;5.850;2022-12-07T11:17:03;7.55;;;1.65;;
67053;SDS011;53960;51.826;5.850;2022-12-07T11:22:20;8.45;;;1.58;;
67053;SDS011;53960;51.826;5.850;2022-12-07T11:29:04;9.90;;;1.73;;
67053;SDS011;53960;51.826;5.850;2022-12-07T11:33:53;9.70;;;1.57;;
67053;SDS011;53960;51.826;5.850;2022-12-07T11:36:31;10.40;;;1.60;;
67053;SDS011;53960;51.826;5.850;2022-12-07T11:39:03;9.77;;;1.73;;
67053;SDS011;53960;51.826;5.850;2022-12-07T11:41:35;10.85;;;1.88;;
67053;SDS011;53960;51.826;5.850;2022-12-07T11:44:07;15.40;;;2.78;;
67053;SDS011;53960;51.826;5.850;2022-12-07T11:49:21;8.00;;;1.90;;
67053;SDS011;53960;51.826;5.850;2022-12-07T11:52:13;9.23;;;1.80;;
67053;SDS011;53960;51.826;5.850;2022-12-07T11:54:44;10.52;;;2.60;;
67053;SDS011;53960;51.826;5.850;2022-12-07T11:57:17;7.45;;;1.50;;
67053;SDS011;53960;51.826;5.850;2022-12-07T11:59:49;7.30;;;1.80;;
67053;SDS011;53960;51.826;5.850;2022-12-07T12:02:22;9.95;;;1.40;;
67053;SDS011;53960;51.826;5.850;2022-12-07T12:07:26;8.35;;;1.70;;
67053;SDS011;53960;51.826;5.850;2022-12-07T12:10:00;10.70;;;2.30;;
67053;SDS011;53960;51.826;5.850;2022-12-07T12:18:07;8.40;;;2.08;;
67053;SDS011;53960;51.826;5.850;2022-12-07T12:23:53;7.45;;;1.80;;
67053;SDS011;53960;51.826;5.850;2022-12-07T12:25:58;11.93;;;2.03;;
67053;SDS011;53960;51.826;5.850;2022-12-07T12:31:07;11.05;;;2.35;;
67053;SDS011;53960;51.826;5.850;2022-12-07T12:33:37;9.68;;;2.13;;
67053;SDS011;53960;51.826;5.850;2022-12-07T12:46:59;15.85;;;2.70;;
67053;SDS011;53960;51.826;5.850;2022-12-07T12:49:33;17.67;;;2.95;;
67053;SDS011;53960;51.826;5.850;2022-12-07T12:52:00;23.67;;;3.67;;
67053;SDS011;53960;51.826;5.850;2022-12-07T12:55:00;15.68;;;2.63;;
67053;SDS011;53960;51.826;5.850;2022-12-07T12:57:37;8.07;;;2.03;;
67053;SDS011;53960;51.826;5.850;2022-12-07T13:00:14;9.80;;;2.20;;
67053;SDS011;53960;51.826;5.850;2022-12-07T13:02:47;9.13;;;2.50;;
67053;SDS011;53960;51.826;5.850;2022-12-07T13:05:17;10.85;;;2.30;;
67053;SDS011;53960;51.826;5.850;2022-12-07T13:18:03;7.85;;;1.42;;
67053;SDS011;53960;51.826;5.850;2022-12-07T13:21:41;8.85;;;1.60;;
67053;SDS011;53960;51.826;5.850;2022-12-07T13:23:27;7.20;;;1.20;;
67053;SDS011;53960;51.826;5.850;2022-12-07T13:29:11;8.82;;;1.30;;
67053;SDS011;53960;51.826;5.850;2022-12-07T13:31:45;7.05;;;1.20;;
67053;SDS011;53960;51.826;5.850;2022-12-07T13:34:32;12.70;;;1.63;;
67053;SDS011;53960;51.826;5.850;2022-12-07T13:37:04;6.53;;;1.63;;
67053;SDS011;53960;51.826;5.850;2022-12-07T13:39:46;7.47;;;1.15;;
67053;SDS011;53960;51.826;5.850;2022-12-07T13:42:22;5.13;;;1.10;;
67053;SDS011;53960;51.826;5.850;2022-12-07T13:44:51;6.28;;;1.10;;
67053;SDS011;53960;51.826;5.850;2022-12-07T13:47:17;7.70;;;1.53;;
67053;SDS011;53960;51.826;5.850;2022-12-07T13:49:51;12.73;;;1.45;;
67053;SDS011;53960;51.826;5.850;2022-12-07T13:52:20;8.02;;;1.25;;
67053;SDS011;53960;51.826;5.850;2022-12-07T13:54:59;10.35;;;1.52;;
67053;SDS011;53960;51.826;5.850;2022-12-07T13:57:27;7.27;;;1.30;;
67053;SDS011;53960;51.826;5.850;2022-12-07T13:59:55;8.60;;;1.10;;
67053;SDS011;53960;51.826;5.850;2022-12-07T14:02:26;6.03;;;1.10;;
67053;SDS011;53960;51.826;5.850;2022-12-07T14:05:05;36.53;;;3.90;;
67053;SDS011;53960;51.826;5.850;2022-12-07T14:07:48;20.10;;;2.23;;
67053;SDS011;53960;51.826;5.850;2022-12-07T14:10:35;8.57;;;1.17;;
67053;SDS011;53960;51.826;5.850;2022-12-07T14:18:46;10.07;;;1.40;;
67053;SDS011;53960;51.826;5.850;2022-12-07T14:21:21;6.43;;;1.10;;
67053;SDS011;53960;51.826;5.850;2022-12-07T14:26:48;9.25;;;1.98;;
67053;SDS011;53960;51.826;5.850;2022-12-07T14:31:50;8.57;;;1.45;;
67053;SDS011;53960;51.826;5.850;2022-12-07T14:34:16;7.43;;;1.38;;
67053;SDS011;53960;51.826;5.850;2022-12-07T14:36:41;10.27;;;1.63;;
67053;SDS011;53960;51.826;5.850;2022-12-07T14:39:06;10.50;;;1.90;;
67053;SDS011;53960;51.826;5.850;2022-12-07T14:41:32;6.97;;;1.60;;
67053;SDS011;53960;51.826;5.850;2022-12-07T14:44:16;7.15;;;1.58;;
67053;SDS011;53960;51.826;5.850;2022-12-07T14:46:42;11.00;;;2.75;;
67053;SDS011;53960;51.826;5.850;2022-12-07T14:49:07;9.13;;;1.83;;
67053;SDS011;53960;51.826;5.850;2022-12-07T14:51:32;8.13;;;1.80;;
67053;SDS011;53960;51.826;5.850;2022-12-07T14:54:00;10.02;;;2.10;;
67053;SDS011;53960;51.826;5.850;2022-12-07T14:56:26;7.90;;;1.80;;
67053;SDS011;53960;51.826;5.850;2022-12-07T14:58:52;9.35;;;2.15;;
67053;SDS011;53960;51.826;5.850;2022-12-07T15:01:18;10.87;;;2.60;;
67053;SDS011;53960;51.826;5.850;2022-12-07T15:03:43;9.70;;;1.93;;
67053;SDS011;53960;51.826;5.850;2022-12-07T15:06:10;6.70;;;1.60;;
67053;SDS011;53960;51.826;5.850;2022-12-07T15:08:38;8.07;;;2.13;;
67053;SDS011;53960;51.826;5.850;2022-12-07T15:11:04;10.53;;;1.90;;
67053;SDS011;53960;51.826;5.850;2022-12-07T15:13:29;9.33;;;1.80;;
67053;SDS011;53960;51.826;5.850;2022-12-07T15:16:13;8.85;;;1.92;;
67053;SDS011;53960;51.826;5.850;2022-12-07T15:18:44;9.73;;;1.60;;
67053;SDS011;53960;51.826;5.850;2022-12-07T15:21:12;7.97;;;1.53;;
67053;SDS011;53960;51.826;5.850;2022-12-07T15:23:38;8.20;;;1.60;;
67053;SDS011;53960;51.826;5.850;2022-12-07T15:26:04;8.87;;;1.87;;
67053;SDS011;53960;51.826;5.850;2022-12-07T15:28:29;6.93;;;1.60;;
67053;SDS011;53960;51.826;5.850;2022-12-07T15:30:55;11.13;;;1.83;;
67053;SDS011;53960;51.826;5.850;2022-12-07T15:33:20;6.78;;;1.50;;
67053;SDS011;53960;51.826;5.850;2022-12-07T15:35:45;7.93;;;1.23;;
67053;SDS011;53960;51.826;5.850;2022-12-07T15:38:11;5.70;;;1.10;;
67053;SDS011;53960;51.826;5.850;2022-12-07T15:40:37;5.63;;;1.35;;
67053;SDS011;53960;51.826;5.850;2022-12-07T15:43:02;6.73;;;1.10;;
67053;SDS011;53960;51.826;5.850;2022-12-07T15:45:28;9.18;;;1.30;;
67053;SDS011;53960;51.826;5.850;2022-12-07T15:47:54;7.77;;;1.40;;
67053;SDS011;53960;51.826;5.850;2022-12-07T15:50:20;7.68;;;1.20;;
67053;SDS011;53960;51.826;5.850;2022-12-07T15:52:46;7.18;;;1.20;;
67053;SDS011;53960;51.826;5.850;2022-12-07T15:55:11;5.80;;;1.10;;
67053;SDS011;53960;51.826;5.850;2022-12-07T15:57:37;5.60;;;1.30;;
67053;SDS011;53960;51.826;5.850;2022-12-07T16:00:03;9.18;;;1.20;;
67053;SDS011;53960;51.826;5.850;2022-12-07T16:02:30;6.37;;;1.27;;
67053;SDS011;53960;51.826;5.850;2022-12-07T16:04:55;5.82;;;1.42;;
67053;SDS011;53960;51.826;5.850;2022-12-07T16:07:20;7.50;;;1.27;;
67053;SDS011;53960;51.826;5.850;2022-12-07T16:09:46;7.33;;;1.30;;
67053;SDS011;53960;51.826;5.850;2022-12-07T16:12:13;6.00;;;1.23;;
67053;SDS011;53960;51.826;5.850;2022-12-07T16:14:39;7.40;;;1.30;;
67053;SDS011;53960;51.826;5.850;2022-12-07T16:17:05;5.87;;;1.20;;
67053;SDS011;53960;51.826;5.850;2022-12-07T16:19:31;5.80;;;1.20;;
67053;SDS011;53960;51.826;5.850;2022-12-07T16:21:57;6.50;;;1.38;;
67053;SDS011;53960;51.826;5.850;2022-12-07T16:24:23;5.93;;;1.50;;
67053;SDS011;53960;51.826;5.850;2022-12-07T16:26:49;6.33;;;1.50;;
67053;SDS011;53960;51.826;5.850;2022-12-07T16:29:14;7.27;;;1.40;;
67053;SDS011;53960;51.826;5.850;2022-12-07T16:31:41;8.18;;;1.60;;
67053;SDS011;53960;51.826;5.850;2022-12-07T16:34:07;7.72;;;1.42;;
67053;SDS011;53960;51.826;5.850;2022-12-07T16:36:33;8.68;;;1.60;;
67053;SDS011;53960;51.826;5.850;2022-12-07T16:38:59;7.87;;;1.63;;